Time;durP1;ratioP1;P1;durP2;ratioP2;P2;SDS_P1;SDS_P2;PMS_P1;PMS_P2;Temp;Humidity;BMP_temperature;BMP_pressure;BME280_temperature;BME280_humidity;BME280_pressure;Samples;Min_cycle;Max_cycle;Signal;HPM_P1;HPM_P2
2021/12/22 00:01:21;;;;;;;39.88;21.92;;;;;;;-5.50;100.00;102640.28;4889350;29;20870;-70
2021/12/22 00:03:47;;;;;;;41.53;21.95;;;;;;;-5.54;100.00;102644.81;4890549;29;20027;-70
2021/12/22 00:06:18;;;;;;;41.20;22.05;;;;;;;-5.49;100.00;102641.13;4900679;28;20039;-71
2021/12/22 00:08:44;;;;;;;44.47;23.17;;;;;;;-5.46;100.00;102641.00;4899204;29;20055;-70
2021/12/22 00:11:10;;;;;;;46.22;23.67;;;;;;;-5.44;100.00;102637.41;4906607;29;20051;-71
2021/12/22 00:13:35;;;;;;;42.88;22.20;;;;;;;-5.51;100.00;102628.06;4877576;28;20056;-71
2021/12/22 00:16:01;;;;;;;42.75;22.00;;;;;;;-5.54;100.00;102650.06;4890638;29;20058;-71
2021/12/22 00:18:26;;;;;;;41.45;21.95;;;;;;;-5.64;100.00;102640.88;4886120;29;20063;-71
2021/12/22 00:20:51;;;;;;;40.92;21.13;;;;;;;-5.75;100.00;102640.47;4897790;28;20059;-71
2021/12/22 00:23:17;;;;;;;38.92;19.58;;;;;;;-5.90;100.00;102635.81;4887048;29;20035;-70
2021/12/22 00:25:42;;;;;;;39.53;20.92;;;;;;;-5.96;100.00;102646.63;4891241;28;20122;-71
2021/12/22 00:28:08;;;;;;;38.58;20.13;;;;;;;-6.01;100.00;102642.38;4890169;29;20372;-70
2021/12/22 00:30:36;;;;;;;46.38;22.17;;;;;;;-6.03;100.00;102636.38;4899069;29;20121;-71
2021/12/22 00:33:04;;;;;;;46.17;21.83;;;;;;;-6.12;100.00;102636.72;4894822;28;20057;-71
2021/12/22 00:35:38;;;;;;;40.35;20.65;;;;;;;-6.14;100.00;102642.94;4906819;29;22751;-70
2021/12/22 00:38:05;;;;;;;36.20;20.40;;;;;;;-6.19;100.00;102640.50;4860498;29;20420;-70
2021/12/22 00:40:30;;;;;;;41.80;20.88;;;;;;;-6.27;100.00;102642.59;4906923;29;21014;-70
2021/12/22 00:42:56;;;;;;;40.60;22.10;;;;;;;-6.26;100.00;102644.28;4875880;29;20063;-71
2021/12/22 00:45:24;;;;;;;45.78;21.65;;;;;;;-6.19;100.00;102648.38;4907111;29;20039;-71
2021/12/22 00:47:49;;;;;;;46.33;21.90;;;;;;;-6.15;100.00;102646.47;4906160;28;22890;-71
2021/12/22 00:50:15;;;;;;;40.22;20.65;;;;;;;-6.16;100.00;102647.41;4862575;29;20059;-71
2021/12/22 00:52:40;;;;;;;41.97;20.73;;;;;;;-6.17;100.00;102646.56;4907358;29;20070;-71
2021/12/22 00:55:06;;;;;;;42.20;19.88;;;;;;;-6.17;100.00;102643.94;4876021;29;20527;-71
2021/12/22 00:57:33;;;;;;;41.55;20.42;;;;;;;-6.10;100.00;102634.06;4894250;29;20504;-71
2021/12/22 00:59:59;;;;;;;40.13;21.33;;;;;;;-5.92;100.00;102629.84;4906773;29;20035;-71
2021/12/22 01:02:24;;;;;;;47.38;22.70;;;;;;;-5.82;100.00;102631.13;4890823;28;20154;-70
2021/12/22 01:04:50;;;;;;;43.30;21.88;;;;;;;-5.86;100.00;102638.28;4888583;29;24009;-70
2021/12/22 01:07:16;;;;;;;48.90;21.85;;;;;;;-5.98;100.00;102632.69;4873014;29;20051;-70
2021/12/22 01:09:41;;;;;;;36.17;19.73;;;;;;;-6.05;100.00;102647.81;4889326;29;20035;-70
2021/12/22 01:12:07;;;;;;;45.40;19.73;;;;;;;-6.10;100.00;102648.03;4887616;29;20044;-70
2021/12/22 01:14:34;;;;;;;35.80;19.98;;;;;;;-6.08;100.00;102638.31;4878198;29;20114;-70
2021/12/22 01:17:02;;;;;;;42.15;21.92;;;;;;;-6.03;100.00;102648.63;4906244;29;20042;-70
2021/12/22 01:19:59;;;;;;;47.55;23.13;;;;;;;-6.03;100.00;102646.84;4889361;29;20567;-71
2021/12/22 01:22:25;;;;;;;42.80;21.95;;;;;;;-6.01;100.00;102642.38;4891207;29;20105;-71
2021/12/22 01:25:00;;;;;;;40.63;22.63;;;;;;;-6.04;100.00;102645.16;4882587;29;20052;-71
2021/12/22 01:27:29;;;;;;;47.33;19.17;;;;;;;-6.09;100.00;102643.63;4873602;29;20047;-71
2021/12/22 01:29:55;;;;;;;40.45;20.65;;;;;;;-6.19;100.00;102640.50;4905209;29;20516;-70
2021/12/22 01:32:20;;;;;;;41.75;21.30;;;;;;;-6.27;100.00;102648.69;4871602;29;20149;-71
2021/12/22 01:34:46;;;;;;;40.88;19.10;;;;;;;-6.28;100.00;102656.63;4886034;29;20034;-70
2021/12/22 01:37:11;;;;;;;35.33;20.75;;;;;;;-6.27;100.00;102643.44;4888813;29;20054;-71
2021/12/22 01:39:37;;;;;;;39.65;20.50;;;;;;;-6.27;100.00;102643.44;4887315;29;20035;-71
2021/12/22 01:42:03;;;;;;;37.40;19.67;;;;;;;-6.28;100.00;102640.88;4887488;29;20170;-71
2021/12/22 01:44:46;;;;;;;43.97;20.00;;;;;;;-6.30;100.00;102647.94;4887322;29;20055;-70
2021/12/22 01:49:55;;;;;;;40.10;19.17;;;;;;;-6.37;100.00;102641.22;4888567;28;20047;-70
2021/12/22 01:52:21;;;;;;;33.75;17.33;;;;;;;-6.29;100.00;102640.00;4904810;29;20038;-70
2021/12/22 01:55:04;;;;;;;39.92;19.70;;;;;;;-6.27;100.00;102642.59;4900483;29;24034;-70
2021/12/22 01:57:30;;;;;;;40.10;20.63;;;;;;;-6.22;100.00;102645.88;4888982;29;20050;-70
2021/12/22 01:59:56;;;;;;;36.70;18.98;;;;;;;-6.18;100.00;102642.19;4888125;28;20039;-70
2021/12/22 02:02:22;;;;;;;37.97;20.15;;;;;;;-6.08;100.00;102654.03;4886110;28;20090;-70
2021/12/22 02:04:48;;;;;;;34.28;19.67;;;;;;;-5.98;100.00;102643.19;4887579;29;20075;-71
2021/12/22 02:07:14;;;;;;;43.30;20.55;;;;;;;-5.95;100.00;102643.06;4889951;29;20094;-71
2021/12/22 02:12:11;;;;;;;40.40;19.05;;;;;;;-6.01;100.00;102639.75;4891166;29;20041;-70
2021/12/22 02:14:37;;;;;;;44.38;20.17;;;;;;;-6.01;100.00;102636.28;4873887;29;20106;-70
2021/12/22 02:17:07;;;;;;;45.85;22.55;;;;;;;-5.91;100.00;102639.38;4888358;29;20139;-70
2021/12/22 02:19:47;;;;;;;50.05;22.13;;;;;;;-5.83;100.00;102637.28;4871029;29;20058;-69
2021/12/22 02:22:15;;;;;;;41.42;21.40;;;;;;;-5.85;100.00;102639.13;4906675;29;20045;-70
2021/12/22 02:24:46;;;;;;;45.17;21.92;;;;;;;-5.87;100.00;102635.69;4901968;29;20058;-70
2021/12/22 02:27:20;;;;;;;44.38;22.45;;;;;;;-5.87;100.00;102635.69;4895756;29;20048;-70
2021/12/22 02:29:48;;;;;;;45.05;22.20;;;;;;;-5.86;100.00;102635.66;4888689;29;21253;-69
2021/12/22 02:32:33;;;;;;;43.90;21.77;;;;;;;-5.87;100.00;102630.44;4890427;29;20181;-69
2021/12/22 02:35:03;;;;;;;49.08;23.52;;;;;;;-5.85;100.00;102633.88;4888252;29;20046;-69
2021/12/22 02:37:29;;;;;;;53.95;22.55;;;;;;;-5.83;100.00;102632.03;4889375;29;20070;-70
2021/12/22 02:40:08;;;;;;;55.78;22.52;;;;;;;-5.81;100.00;102630.22;4905681;29;20035;-70
2021/12/22 02:42:34;;;;;;;43.38;22.42;;;;;;;-5.80;100.00;102638.00;4882562;29;20154;-70
2021/12/22 02:45:11;;;;;;;45.10;22.83;;;;;;;-5.73;100.00;102640.38;4895279;29;20094;-69
2021/12/22 02:47:37;;;;;;;43.13;21.20;;;;;;;-5.71;100.00;102642.03;4887211;29;20043;-70
2021/12/22 02:50:07;;;;;;;49.40;22.77;;;;;;;-5.70;100.00;102643.75;4857441;29;20090;-70
2021/12/22 02:52:46;;;;;;;56.55;24.77;;;;;;;-5.70;100.00;102643.75;4876982;29;20062;-69
2021/12/22 02:55:11;;;;;;;47.58;24.30;;;;;;;-5.63;100.00;102639.94;4884972;28;20072;-70
2021/12/22 02:57:42;;;;;;;58.05;23.95;;;;;;;-5.59;100.00;102640.66;4898797;29;20598;-70
2021/12/22 03:00:32;;;;;;;49.42;23.60;;;;;;;-5.65;100.00;102639.16;4908088;29;20032;-70
2021/12/22 03:05:29;;;;;;;55.20;24.13;;;;;;;-5.53;100.00;102635.16;4892105;29;20070;-69
2021/12/22 03:07:55;;;;;;;56.47;26.17;;;;;;;-5.50;100.00;102627.16;4893063;28;20098;-70
2021/12/22 03:10:21;;;;;;;55.42;24.58;;;;;;;-5.54;100.00;102625.59;4907653;29;20074;-70
2021/12/22 03:12:53;;;;;;;52.33;25.60;;;;;;;-5.62;100.00;102620.63;4904261;29;20086;-69
2021/12/22 03:15:19;;;;;;;51.05;23.55;;;;;;;-5.63;100.00;102626.81;4878772;29;20048;-69
2021/12/22 03:17:46;;;;;;;55.17;23.92;;;;;;;-5.68;100.00;102622.69;4906749;28;20035;-69
2021/12/22 03:20:13;;;;;;;59.25;25.45;;;;;;;-5.74;100.00;102615.91;4873894;28;20051;-69
2021/12/22 03:22:42;;;;;;;60.20;26.90;;;;;;;-5.71;100.00;102621.03;4890696;29;20041;-70
2021/12/22 03:25:14;;;;;;;51.00;24.00;;;;;;;-5.69;100.00;102628.84;4885525;29;20038;-70
2021/12/22 03:27:43;;;;;;;55.60;24.35;;;;;;;-5.64;100.00;102625.13;4898854;29;20503;-70
2021/12/22 03:30:09;;;;;;;53.53;23.83;;;;;;;-5.70;100.00;102627.97;4891148;29;20126;-70
2021/12/22 03:32:35;;;;;;;56.25;23.75;;;;;;;-5.79;100.00;102636.22;4890459;28;20142;-69
2021/12/22 03:35:00;;;;;;;52.97;24.48;;;;;;;-5.84;100.00;102638.19;4909622;29;20042;-70
2021/12/22 03:37:26;;;;;;;56.08;24.27;;;;;;;-5.81;100.00;102640.72;4900882;29;20051;-70
2021/12/22 03:39:52;;;;;;;53.33;24.10;;;;;;;-5.81;100.00;102632.84;4897920;29;20519;-70
2021/12/22 03:42:17;;;;;;;49.03;24.23;;;;;;;-5.79;100.00;102634.50;4908197;29;20068;-70
2021/12/22 03:44:43;;;;;;;54.33;25.67;;;;;;;-5.78;100.00;102625.69;4875811;29;20136;-70
2021/12/22 03:47:08;;;;;;;58.58;24.30;;;;;;;-5.77;100.00;102637.03;4891675;29;20039;-71
2021/12/22 03:49:34;;;;;;;49.17;23.45;;;;;;;-5.78;100.00;102635.34;4902231;28;20137;-71
2021/12/22 03:52:00;;;;;;;48.15;23.42;;;;;;;-5.85;100.00;102633.88;4880248;29;20078;-70
2021/12/22 03:54:26;;;;;;;47.10;22.45;;;;;;;-5.89;100.00;102637.56;4907222;28;20098;-70
2021/12/22 03:56:51;;;;;;;49.00;22.60;;;;;;;-5.89;100.00;102640.19;4873614;29;20124;-70
2021/12/22 03:59:17;;;;;;;48.22;23.67;;;;;;;-5.90;100.00;102630.56;4906148;28;20071;-70
2021/12/22 04:01:42;;;;;;;53.70;23.50;;;;;;;-5.89;100.00;102622.66;4901170;28;20802;-70
2021/12/22 04:04:13;;;;;;;46.15;21.88;;;;;;;-5.89;100.00;102627.06;4879774;29;20055;-71
2021/12/22 04:06:39;;;;;;;57.67;23.45;;;;;;;-5.89;100.00;102627.06;4897445;29;20035;-71
2021/12/22 04:09:05;;;;;;;46.42;20.38;;;;;;;-5.80;100.00;102626.66;4885399;29;20097;-70
2021/12/22 04:11:31;;;;;;;45.10;22.55;;;;;;;-5.80;100.00;102624.03;4906251;29;20035;-71
2021/12/22 04:13:56;;;;;;;48.15;22.90;;;;;;;-5.84;100.00;102630.34;4893795;28;20051;-71
2021/12/22 04:16:22;;;;;;;53.53;22.48;;;;;;;-5.79;100.00;102629.25;4908716;29;20031;-71
2021/12/22 04:18:47;;;;;;;50.38;22.33;;;;;;;-5.82;100.00;102624.09;4891876;29;20047;-70
2021/12/22 04:21:13;;;;;;;51.00;22.55;;;;;;;-5.80;100.00;102622.25;4877719;29;20122;-71
2021/12/22 04:23:38;;;;;;;46.97;22.35;;;;;;;-5.77;100.00;102627.38;4894984;29;20142;-69
2021/12/22 04:26:04;;;;;;;45.90;20.83;;;;;;;-5.73;100.00;102628.09;4891733;29;20058;-70
2021/12/22 04:28:29;;;;;;;47.33;21.70;;;;;;;-5.74;100.00;102625.56;4905993;29;21008;-70
2021/12/22 04:30:55;;;;;;;45.55;22.13;;;;;;;-5.63;100.00;102623.34;4873124;29;20981;-70
2021/12/22 04:33:20;;;;;;;39.75;21.25;;;;;;;-5.72;100.00;102618.47;4891806;29;20165;-70
2021/12/22 04:35:48;;;;;;;44.13;21.75;;;;;;;-5.80;100.00;102616.16;4897431;29;20038;-71
2021/12/22 04:38:14;;;;;;;45.40;21.00;;;;;;;-5.85;100.00;102618.13;4873477;29;20111;-71
2021/12/22 04:40:39;;;;;;;43.95;21.50;;;;;;;-5.91;100.00;102613.13;4889712;29;20058;-71
2021/12/22 04:43:05;;;;;;;44.40;20.55;;;;;;;-5.93;100.00;102604.47;4890167;29;20039;-71
2021/12/22 04:45:30;;;;;;;44.95;21.02;;;;;;;-5.93;100.00;102613.25;4890648;29;20090;-71
2021/12/22 04:47:57;;;;;;;43.05;21.45;;;;;;;-5.97;100.00;102613.41;4890169;29;20167;-70
2021/12/22 04:50:23;;;;;;;45.28;22.02;;;;;;;-5.99;100.00;102615.25;4878279;29;20162;-70
2021/12/22 04:52:58;;;;;;;45.40;21.02;;;;;;;-6.01;100.00;102603.03;4907281;29;20039;-70
2021/12/22 04:55:25;;;;;;;47.45;22.55;;;;;;;-5.96;100.00;102594.16;4888654;29;20067;-71
2021/12/22 04:57:53;;;;;;;44.10;21.75;;;;;;;-5.90;100.00;102593.84;4895549;29;20051;-70
2021/12/22 05:00:19;;;;;;;49.42;22.42;;;;;;;-5.94;100.00;102592.28;4889072;29;20118;-71
2021/12/22 05:02:45;;;;;;;46.03;20.52;;;;;;;-6.02;100.00;102598.72;4877228;28;20051;-71
2021/12/22 05:05:10;;;;;;;46.10;20.90;;;;;;;-6.01;100.00;102597.78;4889180;29;20433;-71
2021/12/22 05:07:36;;;;;;;46.13;20.38;;;;;;;-6.02;100.00;102597.84;4902161;29;20701;-70
2021/12/22 05:10:03;;;;;;;44.35;22.90;;;;;;;-6.01;100.00;102592.53;4879179;29;20060;-71
2021/12/22 05:12:28;;;;;;;46.13;21.75;;;;;;;-5.94;100.00;102592.28;4887704;29;21107;-71
2021/12/22 05:14:54;;;;;;;42.97;21.83;;;;;;;-5.89;100.00;102588.53;4875484;28;20055;-71
2021/12/22 05:17:38;;;;;;;42.30;21.38;;;;;;;-5.91;100.00;102592.13;4895331;28;20043;-71
2021/12/22 05:20:04;;;;;;;46.83;22.00;;;;;;;-6.04;100.00;102592.69;4902537;28;20459;-71
2021/12/22 05:22:30;;;;;;;40.88;19.98;;;;;;;-6.02;100.00;102590.84;4896649;29;20059;-70
2021/12/22 05:24:57;;;;;;;49.58;23.38;;;;;;;-6.08;100.00;102584.97;4906432;29;20228;-70
2021/12/22 05:27:23;;;;;;;48.92;21.08;;;;;;;-6.12;100.00;102593.91;4891990;29;20056;-71
2021/12/22 05:29:49;;;;;;;44.38;21.05;;;;;;;-6.18;100.00;102584.50;4889242;28;20138;-71
2021/12/22 05:32:14;;;;;;;49.17;22.20;;;;;;;-6.19;100.00;102579.31;4898077;28;20134;-71
2021/12/22 05:34:39;;;;;;;47.13;20.45;;;;;;;-6.20;100.00;102578.47;4896288;29;20137;-71
2021/12/22 05:37:05;;;;;;;48.33;22.25;;;;;;;-6.22;100.00;102574.19;4906097;29;20035;-71
2021/12/22 05:39:30;;;;;;;49.80;22.35;;;;;;;-6.18;100.00;102576.63;4871275;29;20051;-70
2021/12/22 05:41:57;;;;;;;47.67;22.20;;;;;;;-6.20;100.00;102581.09;4903983;29;20040;-70
2021/12/22 05:44:23;;;;;;;47.42;21.98;;;;;;;-6.21;100.00;102568.91;4890089;29;20147;-71
2021/12/22 05:46:49;;;;;;;47.58;21.63;;;;;;;-6.17;100.00;102569.63;4904031;29;20625;-71
2021/12/22 05:49:14;;;;;;;49.58;22.02;;;;;;;-6.18;100.00;102563.50;4888422;29;20090;-71
2021/12/22 05:51:40;;;;;;;45.33;21.80;;;;;;;-6.25;100.00;102567.28;4870902;29;20067;-71
2021/12/22 05:54:05;;;;;;;47.13;23.33;;;;;;;-6.13;100.00;102565.97;4904476;29;20447;-71
2021/12/22 05:56:31;;;;;;;54.63;23.25;;;;;;;-6.14;100.00;102557.25;4889545;29;20043;-71
2021/12/22 05:58:56;;;;;;;39.67;20.88;;;;;;;-6.07;100.00;102566.56;4905886;29;20019;-71
2021/12/22 06:01:22;;;;;;;44.65;23.67;;;;;;;-6.05;100.00;102564.72;4904286;29;20031;-70
2021/12/22 06:03:47;;;;;;;45.90;21.42;;;;;;;-6.11;100.00;102559.72;4872797;29;20047;-71
2021/12/22 06:06:13;;;;;;;44.17;22.90;;;;;;;-6.05;100.00;102564.72;4888445;29;21075;-71
2021/12/22 06:08:38;;;;;;;48.67;22.10;;;;;;;-6.08;100.00;102562.22;4870674;29;20159;-71
2021/12/22 06:11:04;;;;;;;51.28;24.65;;;;;;;-6.05;100.00;102559.47;4903688;29;20078;-71
2021/12/22 06:13:29;;;;;;;47.50;22.02;;;;;;;-6.07;100.00;102566.56;4904541;28;20985;-71
2021/12/22 06:15:55;;;;;;;45.88;23.35;;;;;;;-6.04;100.00;102561.19;4871140;29;21138;-71
2021/12/22 06:18:20;;;;;;;44.00;23.10;;;;;;;-6.07;100.00;102555.19;4905025;28;20163;-71
2021/12/22 06:20:46;;;;;;;48.55;23.13;;;;;;;-6.07;100.00;102561.31;4872112;29;20123;-71
2021/12/22 06:23:11;;;;;;;45.20;22.38;;;;;;;-5.97;100.00;102560.94;4903364;29;20059;-71
2021/12/22 06:25:37;;;;;;;44.15;21.75;;;;;;;-5.97;100.00;102564.41;4903987;29;20118;-71
2021/12/22 06:28:03;;;;;;;48.25;24.05;;;;;;;-6.03;100.00;102573.41;4872062;28;20066;-70
2021/12/22 06:30:29;;;;;;;46.72;22.70;;;;;;;-6.02;100.00;102564.59;4882620;28;20034;-71
2021/12/22 06:32:54;;;;;;;49.85;22.20;;;;;;;-5.95;100.00;102569.59;4888454;29;20051;-71
2021/12/22 06:35:20;;;;;;;46.72;23.15;;;;;;;-5.87;100.00;102567.47;4887816;29;20082;-71
2021/12/22 06:37:48;;;;;;;44.50;22.42;;;;;;;-5.93;100.00;102573.00;4905565;28;23013;-71
2021/12/22 06:40:14;;;;;;;56.60;23.13;;;;;;;-5.91;100.00;102571.13;4875226;29;20057;-71
2021/12/22 06:42:40;;;;;;;49.83;23.75;;;;;;;-5.94;100.00;102568.66;4886716;29;20113;-71
2021/12/22 06:45:07;;;;;;;53.15;24.45;;;;;;;-5.99;100.00;102573.28;4889021;28;20097;-71
2021/12/22 06:47:33;;;;;;;48.20;23.25;;;;;;;-5.95;100.00;102564.34;4903790;28;20036;-71
2021/12/22 06:49:58;;;;;;;50.35;23.98;;;;;;;-5.93;100.00;102557.25;4902402;29;22888;-71
2021/12/22 06:52:23;;;;;;;49.33;22.77;;;;;;;-5.91;100.00;102560.66;4887243;28;20062;-72
2021/12/22 06:54:49;;;;;;;49.33;22.13;;;;;;;-5.91;100.00;102561.50;4886049;29;20073;-71
2021/12/22 06:57:19;;;;;;;49.17;21.65;;;;;;;-5.99;100.00;102561.00;4891081;29;20111;-72
2021/12/22 06:59:44;;;;;;;55.13;23.38;;;;;;;-5.95;100.00;102562.56;4905333;29;20549;-71
2021/12/22 07:02:10;;;;;;;48.08;22.85;;;;;;;-5.99;100.00;102568.03;4902341;28;20050;-71
2021/12/22 07:04:35;;;;;;;51.20;24.75;;;;;;;-6.02;100.00;102561.97;4894361;29;20073;-71
2021/12/22 07:07:01;;;;;;;43.13;22.02;;;;;;;-6.07;100.00;102556.06;4873578;29;20676;-71
2021/12/22 07:09:26;;;;;;;48.22;21.77;;;;;;;-6.13;100.00;102560.72;4873546;28;20059;-71
2021/12/22 07:11:52;;;;;;;53.42;25.20;;;;;;;-6.13;100.00;102551.06;4887979;29;20042;-71
2021/12/22 07:14:17;;;;;;;48.88;21.65;;;;;;;-6.12;100.00;102551.91;4885298;29;20031;-71
2021/12/22 07:16:44;;;;;;;51.95;23.77;;;;;;;-6.12;100.00;102541.44;4892436;28;20056;-72
2021/12/22 07:19:10;;;;;;;45.75;21.67;;;;;;;-6.12;100.00;102547.53;4871793;29;20035;-71
2021/12/22 07:21:36;;;;;;;50.90;23.33;;;;;;;-6.12;100.00;102550.16;4874041;29;20155;-72
2021/12/22 07:24:02;;;;;;;49.15;23.25;;;;;;;-6.16;100.00;102548.56;4904605;29;20027;-72
2021/12/22 07:26:27;;;;;;;54.15;23.00;;;;;;;-6.19;100.00;102546.06;4898601;28;20036;-72
2021/12/22 07:28:53;;;;;;;50.35;23.80;;;;;;;-6.12;100.00;102547.53;4894204;29;20082;-72
2021/12/22 07:31:18;;;;;;;59.40;24.80;;;;;;;-6.10;100.00;102535.22;4904129;29;20478;-71
2021/12/22 07:34:12;;;;;;;51.10;23.10;;;;;;;-6.12;100.00;102544.06;4886681;29;20142;-71
2021/12/22 07:36:54;;;;;;;43.60;22.93;;;;;;;-6.23;100.00;102541.88;4886911;29;20047;-72
2021/12/22 07:39:19;;;;;;;54.15;22.98;;;;;;;-6.21;100.00;102547.91;4853150;29;20392;-70
2021/12/22 07:41:45;;;;;;;55.67;24.25;;;;;;;-6.25;100.00;102541.06;4904322;28;20028;-71
2021/12/22 07:44:10;;;;;;;49.85;21.73;;;;;;;-6.34;100.00;102549.34;4905307;29;20115;-71
2021/12/22 07:46:36;;;;;;;43.80;22.27;;;;;;;-6.31;100.00;102536.09;4891541;29;20059;-72
2021/12/22 07:49:01;;;;;;;39.90;19.75;;;;;;;-6.30;100.00;102543.88;4906006;29;20035;-72
2021/12/22 07:51:27;;;;;;;48.45;22.65;;;;;;;-6.30;100.00;102538.66;4889830;28;20071;-72
2021/12/22 07:53:52;;;;;;;49.42;23.60;;;;;;;-6.19;100.00;102543.44;4891647;29;20051;-72
2021/12/22 07:56:18;;;;;;;49.85;23.90;;;;;;;-6.16;100.00;102538.09;4890320;29;20055;-72
2021/12/22 07:58:43;;;;;;;56.00;23.45;;;;;;;-6.19;100.00;102539.97;4894780;29;20051;-72
2021/12/22 08:01:09;;;;;;;57.50;23.50;;;;;;;-6.10;100.00;102542.22;4907002;29;20475;-71
2021/12/22 08:03:34;;;;;;;48.75;22.08;;;;;;;-6.03;100.00;102539.28;4893588;29;20043;-72
2021/12/22 08:05:59;;;;;;;49.08;23.35;;;;;;;-5.97;100.00;102545.19;4908131;28;20073;-72
2021/12/22 08:08:25;;;;;;;55.05;24.05;;;;;;;-5.93;100.00;102544.13;4908305;29;20035;-72
2021/12/22 08:10:50;;;;;;;52.08;23.33;;;;;;;-5.86;100.00;102532.41;4893571;29;20062;-72
2021/12/22 08:13:16;;;;;;;50.55;25.23;;;;;;;-5.79;100.00;102539.13;4889601;29;20035;-72
2021/12/22 08:15:42;;;;;;;50.60;22.73;;;;;;;-5.71;100.00;102537.03;4893126;28;20133;-72
2021/12/22 08:18:08;;;;;;;48.85;23.83;;;;;;;-5.58;100.00;102547.84;4907178;28;20031;-71
2021/12/22 08:20:33;;;;;;;43.90;21.83;;;;;;;-5.51;100.00;102544.03;4906576;29;20028;-71
2021/12/22 08:22:59;;;;;;;51.45;24.63;;;;;;;-5.46;100.00;102546.47;4894740;28;21190;-70
2021/12/22 08:25:24;;;;;;;46.88;23.45;;;;;;;-5.46;100.00;102543.84;4908338;29;20039;-71
2021/12/22 08:27:50;;;;;;;52.88;23.88;;;;;;;-5.34;100.00;102545.91;4892160;28;20047;-71
2021/12/22 08:30:15;;;;;;;55.22;23.73;;;;;;;-5.28;100.00;102550.91;4905037;29;20568;-70
2021/12/22 08:32:42;;;;;;;46.80;23.70;;;;;;;-5.11;100.00;102543.13;4903637;29;20031;-71
2021/12/22 08:35:09;;;;;;;57.53;24.83;;;;;;;-4.90;100.00;102540.44;4890707;29;20540;-70
2021/12/22 08:40:21;;;;;;;48.15;25.15;;;;;;;-4.45;100.00;102541.81;4889812;28;20082;-70
2021/12/22 08:42:48;;;;;;;58.83;24.80;;;;;;;-4.32;100.00;102545.53;4908173;28;20031;-71
2021/12/22 08:45:14;;;;;;;50.97;25.00;;;;;;;-4.21;100.00;102545.88;4885328;29;20507;-70
2021/12/22 08:47:40;;;;;;;52.60;25.95;;;;;;;-4.14;100.00;102547.28;4897719;29;21236;-72
2021/12/22 08:50:08;;;;;;;52.80;23.92;;;;;;;-4.05;100.00;102545.13;4906379;29;20094;-72
2021/12/22 08:52:33;;;;;;;51.63;23.75;;;;;;;-4.04;100.00;102544.19;4889631;29;20094;-71
2021/12/22 08:54:59;;;;;;;49.03;24.17;;;;;;;-4.05;100.00;102534.59;4890047;29;22417;-72
2021/12/22 08:57:24;;;;;;;49.25;23.58;;;;;;;-3.96;100.00;102540.25;4902124;28;20047;-72
2021/12/22 08:59:50;;;;;;;53.85;25.50;;;;;;;-3.92;100.00;102543.56;4897127;29;20587;-72
2021/12/22 09:02:15;;;;;;;43.30;23.17;;;;;;;-3.85;100.00;102547.59;4907395;28;20039;-72
2021/12/22 09:04:41;;;;;;;52.58;26.98;;;;;;;-3.77;100.00;102548.06;4869798;29;20055;-73
2021/12/22 09:07:06;;;;;;;52.53;25.45;;;;;;;-3.71;100.00;102547.75;4887585;29;20053;-72
2021/12/22 09:09:32;;;;;;;52.30;26.55;;;;;;;-3.69;100.00;102548.50;4898475;29;20393;-72
2021/12/22 09:11:58;;;;;;;52.97;26.98;;;;;;;-3.64;100.00;102554.41;4876816;29;20173;-72
2021/12/22 09:14:24;;;;;;;46.65;24.85;;;;;;;-3.66;100.00;102556.25;4887509;29;20047;-72
2021/12/22 09:16:51;;;;;;;59.08;26.42;;;;;;;-3.65;100.00;102555.34;4874112;29;20562;-72
2021/12/22 09:19:16;;;;;;;55.78;25.67;;;;;;;-3.68;100.00;102563.41;4905534;29;20039;-71
2021/12/22 09:21:42;;;;;;;48.65;24.75;;;;;;;-3.62;100.00;102560.44;4899667;29;20053;-72
2021/12/22 09:24:07;;;;;;;60.85;26.20;;;;;;;-3.57;100.00;102562.00;4894673;29;20055;-71
2021/12/22 09:26:33;;;;;;;56.15;25.52;;;;;;;-3.54;100.00;102553.94;4904552;29;20042;-73
2021/12/22 09:28:59;;;;;;;50.00;24.33;;;;;;;-3.42;100.00;102555.94;4889085;28;20055;-71
2021/12/22 09:31:25;;;;;;;58.80;25.02;;;;;;;-3.39;100.00;102553.97;4889313;29;20114;-71
2021/12/22 09:33:51;;;;;;;52.38;27.55;;;;;;;-3.34;100.00;102547.59;4892064;29;20048;-71
2021/12/22 09:36:17;;;;;;;54.05;24.33;;;;;;;-3.26;100.00;102543.66;4874429;29;20031;-71
2021/12/22 09:38:42;;;;;;;45.90;27.02;;;;;;;-3.18;100.00;102541.44;4906275;28;20051;-72
2021/12/22 09:41:09;;;;;;;49.85;24.80;;;;;;;-3.01;100.00;102539.69;4889717;29;20055;-73
2021/12/22 09:43:35;;;;;;;48.83;26.58;;;;;;;-2.93;100.00;102545.41;4905849;29;20043;-73
2021/12/22 09:46:06;;;;;;;49.58;25.27;;;;;;;-2.67;100.00;102544.84;4874241;29;20051;-73
2021/12/22 09:53:43;;;;;;;48.05;25.58;;;;;;;-2.29;100.00;102547.06;4893609;29;20060;-71
2021/12/22 09:56:10;;;;;;;52.60;25.10;;;;;;;-2.20;100.00;102553.63;4906533;28;20113;-72
2021/12/22 09:58:38;;;;;;;47.53;22.23;;;;;;;-2.14;100.00;102547.13;4888702;28;20051;-71
2021/12/22 10:01:04;;;;;;;45.05;24.05;;;;;;;-2.14;100.00;102549.78;4905860;29;20066;-71
2021/12/22 10:03:29;;;;;;;47.50;24.73;;;;;;;-2.08;100.00;102546.78;4881388;28;20411;-71
2021/12/22 10:05:55;;;;;;;42.30;22.77;;;;;;;-1.97;100.00;102549.66;4894612;28;20062;-71
2021/12/22 10:08:24;;;;;;;45.53;23.50;;;;;;;-1.98;100.00;102537.41;4906254;28;20031;-71
2021/12/22 10:11:10;;;;;;;44.60;23.27;;;;;;;-1.85;100.00;102537.53;4873969;29;20090;-71
2021/12/22 10:13:39;;;;;;;45.78;23.85;;;;;;;-1.84;100.00;102540.06;4889601;29;20027;-72
2021/12/22 10:16:15;;;;;;;49.70;22.50;;;;;;;-1.86;100.00;102527.88;4876536;28;20078;-71
2021/12/22 10:18:40;;;;;;;42.08;23.67;;;;;;;-1.79;100.00;102531.88;4887996;29;20028;-71
2021/12/22 10:21:33;;;;;;;50.15;24.02;;;;;;;-1.48;100.00;102528.22;4886246;29;20042;-71
2021/12/22 10:24:02;;;;;;;41.58;22.75;;;;;;;-1.37;100.00;102524.94;4892302;29;20141;-71
2021/12/22 10:26:27;;;;;;;45.08;22.25;;;;;;;-1.34;100.00;102517.66;4886924;29;20027;-71
2021/12/22 10:29:01;;;;;;;41.05;21.30;;;;;;;-1.42;100.00;102519.09;4888264;28;20055;-72
2021/12/22 10:31:32;;;;;;;39.65;21.73;;;;;;;-1.28;100.00;102527.03;4903557;29;20162;-71
2021/12/22 10:34:00;;;;;;;39.45;21.30;;;;;;;-1.22;100.00;102511.63;4899879;29;20081;-72
2021/12/22 10:36:26;;;;;;;42.50;22.55;;;;;;;-1.15;100.00;102521.84;4877635;29;20066;-72
2021/12/22 10:39:00;;;;;;;46.83;22.35;;;;;;;-1.06;100.00;102516.81;4883372;28;20035;-71
2021/12/22 10:41:30;;;;;;;37.15;22.33;;;;;;;-0.97;100.00;102515.38;4869797;29;20061;-71
2021/12/22 10:43:56;;;;;;;40.55;20.25;;;;;;;-0.82;100.00;102508.28;4885471;28;20031;-72
2021/12/22 10:46:31;;;;;;;37.00;20.27;;;;;;;-0.60;100.00;102507.72;4870690;28;20051;-71
2021/12/22 10:49:14;;;;;;;38.10;20.58;;;;;;;-0.29;100.00;102518.00;4902443;28;20532;-72
2021/12/22 10:51:42;;;;;;;33.92;19.95;;;;;;;-0.05;100.00;102504.94;4901085;28;20031;-71
2021/12/22 10:54:13;;;;;;;34.35;19.60;;;;;;;-0.32;100.00;102496.19;4892279;29;20062;-71
2021/12/22 10:56:42;;;;;;;34.67;18.75;;;;;;;-0.52;100.00;102508.09;4884128;29;20121;-71
2021/12/22 10:59:15;;;;;;;29.27;18.17;;;;;;;-0.65;100.00;102499.25;4887181;29;20058;-70
2021/12/22 11:02:09;;;;;;;35.22;19.00;;;;;;;-0.89;100.00;102497.22;4886411;29;20032;-70
2021/12/22 11:04:42;;;;;;;33.28;18.42;;;;;;;-0.90;100.00;102495.53;4869388;29;20064;-69
2021/12/22 11:07:22;;;;;;;32.80;19.15;;;;;;;-0.87;100.00;102495.34;4885137;29;20138;-69
2021/12/22 11:09:49;;;;;;;37.17;20.40;;;;;;;-0.78;100.00;102494.72;4884796;28;20082;-69
2021/12/22 11:12:17;;;;;;;31.65;18.52;;;;;;;-0.87;100.00;102484.75;4872910;29;20078;-69
2021/12/22 11:14:47;;;;;;;43.20;18.83;;;;;;;-0.76;100.00;102492.84;4885162;29;20119;-69
2021/12/22 11:17:21;;;;;;;39.95;19.67;;;;;;;-0.67;100.00;102490.53;4871790;28;20229;-69
2021/12/22 11:20:04;;;;;;;38.78;19.38;;;;;;;-0.66;100.00;102479.03;4887440;29;20047;-69